Time,TemperatureF,DewpointF,PressureIn,WindDirection,WindDirectionDegrees,WindSpeedMPH,WindSpeedGustMPH,Humidity,HourlyPrecipIn,Conditions,Clouds,dailyrainin,SoftwareType,DateUTC
2013-05-19 00:01:00,69.3,56.2,29.99,North,32767,0.0,0.0,63,0.00,,,0.00,Wunderground v.1.13,2013-05-19 04:01:00,
2013-05-19 00:03:00,69.1,56.0,29.99,North,360,0.0,0.0,63,0.00,,,0.00,Wunderground v.1.13,2013-05-19 04:03:00,
2013-05-19 00:05:00,69.0,55.9,29.99,North,32767,0.0,0.0,63,0.00,,,0.00,Wunderground v.1.13,2013-05-19 04:05:00,
2013-05-19 00:06:00,69.0,55.9,29.99,North,360,0.0,0.0,63,0.00,,,0.00,Wunderground v.1.13,2013-05-19 04:06:00,
2013-05-19 00:11:00,68.7,55.2,29.99,North,32767,0.0,0.0,62,0.00,,,0.00,Wunderground v.1.13,2013-05-19 04:11:00,
2013-05-19 00:16:00,68.5,54.1,29.99,North,360,0.0,0.0,60,0.00,,,0.00,Wunderground v.1.13,2013-05-19 04:16:00,
2013-05-19 00:18:00,68.5,54.1,29.99,North,32767,0.0,0.0,60,0.00,,,0.00,Wunderground v.1.13,2013-05-19 04:18:00,
2013-05-19 00:24:00,68.2,53.8,29.99,North,32767,0.0,0.0,60,0.00,,,0.00,Wunderground v.1.13,2013-05-19 04:24:00,
2013-05-19 00:29:00,68.0,53.6,29.99,North,32767,0.0,0.0,60,0.00,,,0.00,Wunderground v.1.13,2013-05-19 04:29:00,
2013-05-19 00:34:00,67.8,53.4,29.99,North,32767,0.0,0.0,60,0.00,,,0.00,Wunderground v.1.13,2013-05-19 04:34:00,
2013-05-19 00:40:00,67.6,53.2,29.99,North,360,0.0,0.0,60,0.00,,,0.00,Wunderground v.1.13,2013-05-19 04:40:00,
2013-05-19 00:45:00,67.4,53.5,29.99,North,360,0.0,0.0,61,0.00,,,0.00,Wunderground v.1.13,2013-05-19 04:45:00,
2013-05-19 00:51:00,67.2,54.6,29.99,North,32767,0.0,0.0,64,0.00,,,0.00,Wunderground v.1.13,2013-05-19 04:51:00,
2013-05-19 00:56:00,66.9,54.3,29.99,North,32767,0.0,0.0,64,0.00,,,0.00,Wunderground v.1.13,2013-05-19 04:56:00,
2013-05-19 01:02:00,66.6,53.2,29.98,North,32767,0.0,0.0,62,0.00,,,0.00,Wunderground v.1.13,2013-05-19 05:02:00,
2013-05-19 01:08:00,66.4,53.0,29.98,North,32767,0.0,0.0,62,0.00,,,0.00,Wunderground v.1.13,2013-05-19 05:08:00,
2013-05-19 01:13:00,66.2,52.8,29.98,North,360,0.0,0.0,62,0.00,,,0.00,Wunderground v.1.13,2013-05-19 05:13:00,
2013-05-19 01:19:00,66.0,52.2,29.98,North,32767,0.0,0.0,61,0.00,,,0.00,Wunderground v.1.13,2013-05-19 05:19:00,
2013-05-19 01:24:00,65.8,51.5,29.98,North,32767,0.0,0.0,60,0.00,,,0.00,Wunderground v.1.13,2013-05-19 05:24:00,
2013-05-19 01:30:00,65.6,51.3,29.98,North,32767,0.0,0.0,60,0.00,,,0.00,Wunderground v.1.13,2013-05-19 05:30:00,
2013-05-19 01:36:00,65.3,51.1,29.98,North,360,0.0,0.0,60,0.00,,,0.00,Wunderground v.1.13,2013-05-19 05:36:00,
2013-05-19 01:41:00,65.1,50.9,29.98,North,360,0.0,0.0,60,0.00,,,0.00,Wunderground v.1.13,2013-05-19 05:41:00,
2013-05-19 01:47:00,64.9,50.7,29.97,North,32767,0.0,0.0,60,0.00,,,0.00,Wunderground v.1.13,2013-05-19 05:47:00,
2013-05-19 01:53:00,64.7,50.0,29.97,North,32767,0.0,0.0,59,0.00,,,0.00,Wunderground v.1.13,2013-05-19 05:53:00,
2013-05-19 01:59:00,64.6,49.9,29.96,North,32767,0.0,0.0,59,0.00,,,0.00,Wunderground v.1.13,2013-05-19 05:59:00,
2013-05-19 02:05:00,64.4,49.8,29.96,North,32767,0.0,0.0,59,0.00,,,0.00,Wunderground v.1.13,2013-05-19 06:05:00,
2013-05-19 02:10:00,64.3,49.7,29.96,North,32767,0.0,0.0,59,0.00,,,0.00,Wunderground v.1.13,2013-05-19 06:10:00,
2013-05-19 02:16:00,64.1,49.0,29.96,North,32767,0.0,0.0,58,0.00,,,0.00,Wunderground v.1.13,2013-05-19 06:16:00,
2013-05-19 02:22:00,63.9,49.3,29.96,North,32767,0.0,0.0,59,0.00,,,0.00,Wunderground v.1.13,2013-05-19 06:22:00,
2013-05-19 02:27:00,63.8,49.2,29.96,North,32767,0.0,0.0,59,0.00,,,0.00,Wunderground v.1.13,2013-05-19 06:27:00,
2013-05-19 02:32:00,63.6,49.0,29.96,North,32767,0.0,0.0,59,0.00,,,0.00,Wunderground v.1.13,2013-05-19 06:32:00,
2013-05-19 02:38:00,63.5,48.9,29.96,North,32767,0.0,0.0,59,0.00,,,0.00,Wunderground v.1.13,2013-05-19 06:38:00,
2013-05-19 02:44:00,63.3,48.7,29.96,North,360,0.0,0.0,59,0.00,,,0.00,Wunderground v.1.13,2013-05-19 06:44:00,
2013-05-19 02:49:00,63.2,48.6,29.96,North,360,0.0,0.0,59,0.00,,,0.00,Wunderground v.1.13,2013-05-19 06:49:00,
2013-05-19 02:54:00,63.1,48.5,29.96,North,360,0.0,0.0,59,0.00,,,0.00,Wunderground v.1.13,2013-05-19 06:54:00,
2013-05-19 02:59:00,62.9,48.3,29.96,North,360,0.0,0.0,59,0.00,,,0.00,Wunderground v.1.13,2013-05-19 06:59:00,
2013-05-19 03:05:00,62.8,48.7,29.96,North,360,0.0,0.0,60,0.00,,,0.00,Wunderground v.1.13,2013-05-19 07:05:00,
2013-05-19 03:10:00,62.7,48.6,29.96,North,32767,0.0,0.0,60,0.00,,,0.00,Wunderground v.1.13,2013-05-19 07:10:00,
2013-05-19 03:16:00,62.6,48.5,29.96,North,32767,0.0,0.0,60,0.00,,,0.00,Wunderground v.1.13,2013-05-19 07:16:00,
2013-05-19 03:22:00,62.4,48.3,29.96,North,32767,0.0,0.0,60,0.00,,,0.00,Wunderground v.1.13,2013-05-19 07:22:00,
2013-05-19 03:27:00,62.2,48.1,29.95,North,32767,0.0,0.0,60,0.00,,,0.00,Wunderground v.1.13,2013-05-19 07:27:00,
2013-05-19 03:33:00,62.0,48.4,29.95,North,360,0.0,0.0,61,0.00,,,0.00,Wunderground v.1.13,2013-05-19 07:33:00,
2013-05-19 03:38:00,61.8,48.2,29.95,North,360,0.0,0.0,61,0.00,,,0.00,Wunderground v.1.13,2013-05-19 07:38:00,
2013-05-19 03:44:00,61.7,48.1,29.96,North,32767,0.0,0.0,61,0.00,,,0.00,Wunderground v.1.13,2013-05-19 07:44:00,
2013-05-19 03:49:00,61.6,48.4,29.96,North,32767,0.0,0.0,62,0.00,,,0.00,Wunderground v.1.13,2013-05-19 07:49:00,
2013-05-19 03:54:00,61.5,48.4,29.96,North,32767,0.0,0.0,62,0.00,,,0.00,Wunderground v.1.13,2013-05-19 07:54:00,
2013-05-19 04:00:00,61.4,48.3,29.96,North,360,0.0,0.0,62,0.00,,,0.00,Wunderground v.1.13,2013-05-19 08:00:00,
2013-05-19 04:05:00,61.3,48.2,29.96,North,360,0.0,0.0,62,0.00,,,0.00,Wunderground v.1.13,2013-05-19 08:05:00,
2013-05-19 04:11:00,61.2,48.1,29.96,North,32767,0.0,0.0,62,0.00,,,0.00,Wunderground v.1.13,2013-05-19 08:11:00,
2013-05-19 04:16:00,61.1,48.4,29.96,North,32767,0.0,0.0,63,0.00,,,0.00,Wunderground v.1.13,2013-05-19 08:16:00,
2013-05-19 04:22:00,60.9,48.2,29.96,North,32767,0.0,0.0,63,0.00,,,0.00,Wunderground v.1.13,2013-05-19 08:22:00,
2013-05-19 04:27:00,60.9,48.2,29.96,North,360,0.0,0.0,63,0.00,,,0.00,Wunderground v.1.13,2013-05-19 08:27:00,
2013-05-19 04:33:00,60.8,48.1,29.96,North,360,0.0,0.0,63,0.00,,,0.00,Wunderground v.1.13,2013-05-19 08:33:00,
2013-05-19 04:39:00,60.7,48.0,29.96,North,32767,0.0,0.0,63,0.00,,,0.00,Wunderground v.1.13,2013-05-19 08:39:00,
2013-05-19 04:44:00,60.6,47.9,29.96,North,32767,0.0,0.0,63,0.00,,,0.00,Wunderground v.1.13,2013-05-19 08:44:00,
2013-05-19 04:50:00,60.5,47.8,29.96,North,32767,0.0,0.0,63,0.00,,,0.00,Wunderground v.1.13,2013-05-19 08:50:00,
2013-05-19 04:55:00,60.4,47.7,29.96,North,32767,0.0,0.0,63,0.00,,,0.00,Wunderground v.1.13,2013-05-19 08:55:00,
2013-05-19 05:01:00,60.3,48.1,29.96,North,32767,0.0,0.0,64,0.00,,,0.00,Wunderground v.1.13,2013-05-19 09:01:00,
2013-05-19 05:07:00,60.1,47.9,29.96,North,32767,0.0,0.0,64,0.00,,,0.00,Wunderground v.1.13,2013-05-19 09:07:00,
2013-05-19 05:13:00,60.0,47.8,29.97,North,360,0.0,0.0,64,0.00,,,0.00,Wunderground v.1.13,2013-05-19 09:13:00,
2013-05-19 05:18:00,59.9,47.7,29.97,North,360,0.0,0.0,64,0.00,,,0.00,Wunderground v.1.13,2013-05-19 09:18:00,
2013-05-19 05:24:00,59.8,48.4,29.97,North,32767,0.0,0.0,66,0.00,,,0.00,Wunderground v.1.13,2013-05-19 09:24:00,
2013-05-19 05:30:00,59.6,48.2,29.97,North,32767,0.0,0.0,66,0.00,,,0.00,Wunderground v.1.13,2013-05-19 09:30:00,
2013-05-19 05:35:00,59.5,48.1,29.97,North,32767,0.0,0.0,66,0.00,,,0.00,Wunderground v.1.13,2013-05-19 09:35:00,
2013-05-19 05:41:00,59.3,48.7,29.97,North,360,0.0,0.0,68,0.00,,,0.00,Wunderground v.1.13,2013-05-19 09:41:00,
2013-05-19 05:47:00,59.0,48.8,29.97,North,32767,0.0,0.0,69,0.00,,,0.00,Wunderground v.1.13,2013-05-19 09:47:00,
2013-05-19 05:53:00,59.0,48.8,29.97,North,32767,0.0,0.0,69,0.00,,,0.00,Wunderground v.1.13,2013-05-19 09:53:00,
2013-05-19 05:58:00,58.9,49.1,29.97,North,32767,0.0,0.0,70,0.00,,,0.00,Wunderground v.1.13,2013-05-19 09:58:00,
2013-05-19 06:03:00,58.7,49.3,29.97,North,32767,0.0,0.0,71,0.00,,,0.00,Wunderground v.1.13,2013-05-19 10:03:00,
2013-05-19 06:09:00,58.6,49.2,29.97,North,32767,0.0,0.0,71,0.00,,,0.00,Wunderground v.1.13,2013-05-19 10:09:00,
2013-05-19 06:15:00,58.3,49.3,29.97,North,360,0.0,0.0,72,0.00,,,0.00,Wunderground v.1.13,2013-05-19 10:15:00,
2013-05-19 06:20:00,58.2,49.2,29.97,North,360,0.0,0.0,72,0.00,,,0.00,Wunderground v.1.13,2013-05-19 10:20:00,
2013-05-19 06:26:00,58.1,49.5,29.97,North,32767,0.0,0.0,73,0.00,,,0.00,Wunderground v.1.13,2013-05-19 10:26:00,
2013-05-19 06:32:00,58.0,49.8,29.97,North,360,0.0,0.0,74,0.00,,,0.00,Wunderground v.1.13,2013-05-19 10:32:00,
2013-05-19 06:38:00,58.0,49.8,29.97,North,360,0.0,0.0,74,0.00,,,0.00,Wunderground v.1.13,2013-05-19 10:38:00,
2013-05-19 06:44:00,58.0,49.8,29.97,North,32767,0.0,0.0,74,0.00,,,0.00,Wunderground v.1.13,2013-05-19 10:44:00,
2013-05-19 06:50:00,58.0,49.8,29.97,North,32767,0.0,0.0,74,0.00,,,0.00,Wunderground v.1.13,2013-05-19 10:50:00,
2013-05-19 06:55:00,58.1,49.9,29.97,North,32767,0.0,0.0,74,0.00,,,0.00,Wunderground v.1.13,2013-05-19 10:55:00,
2013-05-19 07:01:00,58.2,50.0,29.97,North,360,0.0,0.0,74,0.00,,,0.00,Wunderground v.1.13,2013-05-19 11:01:00,
2013-05-19 07:07:00,58.5,49.5,29.97,North,32767,0.0,0.0,72,0.00,,,0.00,Wunderground v.1.13,2013-05-19 11:07:00,
2013-05-19 07:12:00,59.0,50.0,29.97,North,32767,0.0,0.0,72,0.00,,,0.00,Wunderground v.1.13,2013-05-19 11:12:00,
2013-05-19 07:18:00,59.0,49.6,29.97,North,360,0.0,0.0,71,0.00,,,0.00,Wunderground v.1.13,2013-05-19 11:18:00,
2013-05-19 07:23:00,59.6,49.8,29.97,North,360,0.0,0.0,70,0.00,,,0.00,Wunderground v.1.13,2013-05-19 11:23:00,
2013-05-19 07:29:00,60.0,50.2,29.97,North,32767,0.0,0.0,70,0.00,,,0.00,Wunderground v.1.13,2013-05-19 11:29:00,
2013-05-19 07:34:00,60.4,50.2,29.97,North,32767,0.0,0.0,69,0.00,,,0.00,Wunderground v.1.13,2013-05-19 11:34:00,
2013-05-19 07:40:00,60.8,50.2,29.97,North,32767,0.0,0.0,68,0.00,,,0.00,Wunderground v.1.13,2013-05-19 11:40:00,
2013-05-19 07:46:00,61.2,50.9,29.96,North,360,0.0,0.0,69,0.00,,,0.00,Wunderground v.1.13,2013-05-19 11:46:00,
2013-05-19 07:51:00,61.7,51.0,29.96,North,32767,0.0,0.0,68,0.00,,,0.00,Wunderground v.1.13,2013-05-19 11:51:00,
2013-05-19 07:56:00,62.1,51.4,29.96,North,32767,0.0,0.0,68,0.00,,,0.00,Wunderground v.1.13,2013-05-19 11:56:00,
2013-05-19 08:01:00,62.4,51.7,29.96,North,32767,0.0,0.0,68,0.00,,,0.00,Wunderground v.1.13,2013-05-19 12:01:00,
2013-05-19 08:07:00,62.8,51.7,29.96,North,360,0.0,0.0,67,0.00,,,0.00,Wunderground v.1.13,2013-05-19 12:07:00,
2013-05-19 08:13:00,62.7,51.6,29.96,North,32767,0.0,0.0,67,0.00,,,0.00,Wunderground v.1.13,2013-05-19 12:13:00,
2013-05-19 08:18:00,63.0,52.3,29.96,North,32767,0.0,0.0,68,0.00,,,0.00,Wunderground v.1.13,2013-05-19 12:18:00,
2013-05-19 08:24:00,63.6,52.4,29.96,North,32767,0.0,0.0,67,0.00,,,0.00,Wunderground v.1.13,2013-05-19 12:24:00,
2013-05-19 08:29:00,64.3,52.7,29.97,North,32767,0.0,0.0,66,0.00,,,0.00,Wunderground v.1.13,2013-05-19 12:29:00,
2013-05-19 08:34:00,64.8,52.8,29.97,North,32767,0.0,0.0,65,0.00,,,0.00,Wunderground v.1.13,2013-05-19 12:34:00,
2013-05-19 08:40:00,64.9,52.8,29.97,North,360,0.0,0.0,65,0.00,,,0.00,Wunderground v.1.13,2013-05-19 12:40:00,
2013-05-19 08:45:00,65.3,53.2,29.97,North,360,0.0,0.0,65,0.00,,,0.00,Wunderground v.1.13,2013-05-19 12:45:00,
2013-05-19 08:51:00,66.3,53.8,29.97,North,32767,0.0,0.0,64,0.00,,,0.00,Wunderground v.1.13,2013-05-19 12:51:00,
2013-05-19 08:56:00,67.0,54.0,29.97,North,32767,0.0,0.0,63,0.00,,,0.00,Wunderground v.1.13,2013-05-19 12:56:00,
2013-05-19 09:01:00,67.4,54.4,29.97,North,32767,0.0,0.0,63,0.00,,,0.00,Wunderground v.1.13,2013-05-19 13:01:00,
2013-05-19 09:07:00,67.9,54.8,29.97,North,360,0.0,0.0,63,0.00,,,0.00,Wunderground v.1.13,2013-05-19 13:07:00,
2013-05-19 09:13:00,68.2,55.1,29.97,North,32767,0.0,0.0,63,0.00,,,0.00,Wunderground v.1.13,2013-05-19 13:13:00,
2013-05-19 09:19:00,69.1,56.0,29.97,North,32767,0.0,0.0,63,0.00,,,0.00,Wunderground v.1.13,2013-05-19 13:19:00,
2013-05-19 09:25:00,69.8,56.6,29.97,North,32767,0.0,0.0,63,0.00,,,0.00,Wunderground v.1.13,2013-05-19 13:25:00,
2013-05-19 09:30:00,70.3,57.1,29.96,North,32767,0.0,0.0,63,0.00,,,0.00,Wunderground v.1.13,2013-05-19 13:30:00,
2013-05-19 09:36:00,70.8,57.1,29.96,North,360,0.0,0.0,62,0.00,,,0.00,Wunderground v.1.13,2013-05-19 13:36:00,
2013-05-19 09:42:00,71.6,57.9,29.96,North,32767,0.0,0.0,62,0.00,,,0.00,Wunderground v.1.13,2013-05-19 13:42:00,
2013-05-19 09:47:00,72.5,58.7,29.96,North,32767,0.0,0.0,62,0.00,,,0.00,Wunderground v.1.13,2013-05-19 13:47:00,
2013-05-19 09:53:00,73.1,58.8,29.96,North,32767,0.0,0.0,61,0.00,,,0.00,Wunderground v.1.13,2013-05-19 13:53:00,
2013-05-19 09:59:00,73.7,59.4,29.96,North,32767,0.0,0.0,61,0.00,,,0.00,Wunderground v.1.13,2013-05-19 13:59:00,
2013-05-19 10:05:00,74.8,60.0,29.96,North,32767,0.0,0.0,60,0.00,,,0.00,Wunderground v.1.13,2013-05-19 14:05:00,
2013-05-19 10:10:00,75.3,60.5,29.96,North,360,0.0,0.0,60,0.00,,,0.00,Wunderground v.1.13,2013-05-19 14:10:00,
2013-05-19 10:15:00,75.9,61.0,29.95,North,32767,0.0,0.0,60,0.00,,,0.00,Wunderground v.1.13,2013-05-19 14:15:00,
2013-05-19 10:21:00,76.8,61.4,29.95,North,32767,0.0,0.0,59,0.00,,,0.00,Wunderground v.1.13,2013-05-19 14:21:00,
2013-05-19 10:27:00,76.1,61.2,29.95,North,360,0.0,0.0,60,0.00,,,0.00,Wunderground v.1.13,2013-05-19 14:27:00,
2013-05-19 10:33:00,76.5,61.6,29.95,North,32767,0.0,0.0,60,0.00,,,0.00,Wunderground v.1.13,2013-05-19 14:33:00,
2013-05-19 10:39:00,77.1,62.1,29.95,North,32767,0.0,0.0,60,0.00,,,0.00,Wunderground v.1.13,2013-05-19 14:39:00,
2013-05-19 10:45:00,77.4,62.4,29.95,North,32767,0.0,0.0,60,0.00,,,0.00,Wunderground v.1.13,2013-05-19 14:45:00,
2013-05-19 10:51:00,78.2,62.7,29.95,North,32767,0.0,0.0,59,0.00,,,0.00,Wunderground v.1.13,2013-05-19 14:51:00,
2013-05-19 10:56:00,78.7,62.7,29.95,North,32767,0.0,0.0,58,0.00,,,0.00,Wunderground v.1.13,2013-05-19 14:56:00,
2013-05-19 11:02:00,78.7,62.7,29.95,North,32767,0.0,0.0,58,0.00,,,0.00,Wunderground v.1.13,2013-05-19 15:02:00,
2013-05-19 11:07:00,78.7,62.7,29.95,North,360,0.0,0.0,58,0.00,,,0.00,Wunderground v.1.13,2013-05-19 15:07:00,
2013-05-19 11:12:00,79.1,63.5,29.96,North,32767,0.0,0.0,59,0.00,,,0.00,Wunderground v.1.13,2013-05-19 15:12:00,
2013-05-19 11:18:00,79.3,63.7,29.96,North,32767,0.0,0.0,59,0.00,,,0.00,Wunderground v.1.13,2013-05-19 15:18:00,
2013-05-19 11:23:00,79.5,63.9,29.96,North,360,0.0,0.0,59,0.00,,,0.00,Wunderground v.1.13,2013-05-19 15:23:00,
2013-05-19 11:29:00,80.2,64.6,29.96,North,32767,0.0,0.0,59,0.00,,,0.00,Wunderground v.1.13,2013-05-19 15:29:00,
2013-05-19 11:35:00,81.0,64.3,29.96,North,32767,0.0,0.0,57,0.00,,,0.00,Wunderground v.1.13,2013-05-19 15:35:00,
2013-05-19 11:40:00,80.5,64.4,29.96,North,32767,0.0,0.0,58,0.00,,,0.00,Wunderground v.1.13,2013-05-19 15:40:00,
2013-05-19 11:45:00,81.1,64.9,29.95,North,360,0.0,0.0,58,0.00,,,0.00,Wunderground v.1.13,2013-05-19 15:45:00,
2013-05-19 11:50:00,81.3,64.6,29.95,North,360,0.0,0.0,57,0.00,,,0.00,Wunderground v.1.13,2013-05-19 15:50:00,
2013-05-19 11:55:00,81.2,65.0,29.95,North,360,0.0,0.0,58,0.00,,,0.00,Wunderground v.1.13,2013-05-19 15:55:00,
2013-05-19 12:01:00,81.8,65.1,29.95,North,32767,0.0,0.0,57,0.00,,,0.00,Wunderground v.1.13,2013-05-19 16:01:00,
2013-05-19 12:06:00,82.6,65.3,29.95,North,32767,0.0,0.0,56,0.00,,,0.00,Wunderground v.1.13,2013-05-19 16:06:00,
2013-05-19 12:12:00,83.0,65.7,29.94,North,32767,0.0,0.0,56,0.00,,,0.00,Wunderground v.1.13,2013-05-19 16:12:00,
2013-05-19 12:17:00,82.6,65.3,29.94,North,32767,0.0,0.0,56,0.00,,,0.00,Wunderground v.1.13,2013-05-19 16:17:00,
2013-05-19 12:22:00,82.2,64.4,29.94,North,360,0.0,0.0,55,0.00,,,0.00,Wunderground v.1.13,2013-05-19 16:22:00,
2013-05-19 12:28:00,83.0,65.7,29.93,North,360,0.0,0.0,56,0.00,,,0.00,Wunderground v.1.13,2013-05-19 16:28:00,
2013-05-19 12:34:00,83.0,64.6,29.93,North,32767,0.0,0.0,54,0.00,,,0.00,Wunderground v.1.13,2013-05-19 16:34:00,
2013-05-19 12:40:00,82.6,64.8,29.93,North,32767,0.0,0.0,55,0.00,,,0.00,Wunderground v.1.13,2013-05-19 16:40:00,
2013-05-19 12:46:00,82.8,65.0,29.93,North,32767,0.0,0.0,55,0.00,,,0.00,Wunderground v.1.13,2013-05-19 16:46:00,
2013-05-19 12:52:00,83.2,64.8,29.93,North,32767,0.0,0.0,54,0.00,,,0.00,Wunderground v.1.13,2013-05-19 16:52:00,
2013-05-19 12:57:00,82.5,64.7,29.93,North,32767,0.0,0.0,55,0.00,,,0.00,Wunderground v.1.13,2013-05-19 16:57:00,
2013-05-19 13:03:00,82.1,64.3,29.93,North,360,0.0,0.0,55,0.00,,,0.00,Wunderground v.1.13,2013-05-19 17:03:00,
2013-05-19 13:08:00,82.8,65.0,29.93,North,360,0.0,0.0,55,0.00,,,0.00,Wunderground v.1.13,2013-05-19 17:08:00,
2013-05-19 13:13:00,84.0,65.0,29.93,North,32767,0.0,0.0,53,0.00,,,0.00,Wunderground v.1.13,2013-05-19 17:13:00,
2013-05-19 13:18:00,84.2,64.7,29.93,North,360,0.0,0.0,52,0.00,,,0.00,Wunderground v.1.13,2013-05-19 17:18:00,
2013-05-19 13:24:00,84.7,65.1,29.93,North,32767,0.0,0.0,52,0.00,,,0.00,Wunderground v.1.13,2013-05-19 17:24:00,
2013-05-19 13:30:00,84.8,64.7,29.92,North,32767,0.0,0.0,51,0.00,,,0.00,Wunderground v.1.13,2013-05-19 17:30:00,
2013-05-19 13:36:00,84.0,64.5,29.92,North,360,0.0,0.0,52,0.00,,,0.00,Wunderground v.1.13,2013-05-19 17:36:00,
2013-05-19 13:41:00,84.3,65.3,29.92,North,32767,0.0,0.0,53,0.00,,,0.00,Wunderground v.1.13,2013-05-19 17:41:00,
2013-05-19 13:47:00,84.6,64.5,29.91,North,360,0.0,0.0,51,0.00,,,0.00,Wunderground v.1.13,2013-05-19 17:47:00,
2013-05-19 13:52:00,85.4,65.2,29.91,North,32767,0.0,0.0,51,0.00,,,0.00,Wunderground v.1.13,2013-05-19 17:52:00,
2013-05-19 13:58:00,84.8,64.7,29.90,North,360,0.0,0.0,51,0.00,,,0.00,Wunderground v.1.13,2013-05-19 17:58:00,
2013-05-19 14:03:00,84.8,65.2,29.90,North,360,0.0,0.0,52,0.00,,,0.00,Wunderground v.1.13,2013-05-19 18:03:00,
2013-05-19 14:09:00,85.2,65.6,29.90,North,360,0.0,0.0,52,0.00,,,0.00,Wunderground v.1.13,2013-05-19 18:09:00,
2013-05-19 14:14:00,85.1,64.4,29.89,North,360,0.0,0.0,50,0.00,,,0.00,Wunderground v.1.13,2013-05-19 18:14:00,
2013-05-19 14:19:00,84.8,65.2,29.89,North,32767,0.0,0.0,52,0.00,,,0.00,Wunderground v.1.13,2013-05-19 18:19:00,
2013-05-19 14:24:00,84.8,65.2,29.89,North,32767,0.0,0.0,52,0.00,,,0.00,Wunderground v.1.13,2013-05-19 18:24:00,
2013-05-19 14:30:00,84.5,64.4,29.89,North,360,0.0,0.0,51,0.00,,,0.00,Wunderground v.1.13,2013-05-19 18:30:00,
2013-05-19 14:35:00,85.0,64.8,29.89,North,360,0.0,0.0,51,0.00,,,0.00,Wunderground v.1.13,2013-05-19 18:35:00,
2013-05-19 14:40:00,84.9,64.8,29.89,North,32767,0.0,0.0,51,0.00,,,0.00,Wunderground v.1.13,2013-05-19 18:40:00,
2013-05-19 14:46:00,84.8,65.2,29.88,North,32767,0.0,0.0,52,0.00,,,0.00,Wunderground v.1.13,2013-05-19 18:46:00,
2013-05-19 14:51:00,85.2,65.0,29.88,North,32767,0.0,0.0,51,0.00,,,0.00,Wunderground v.1.13,2013-05-19 18:51:00,
2013-05-19 14:57:00,85.3,65.1,29.87,North,360,0.0,0.0,51,0.00,,,0.00,Wunderground v.1.13,2013-05-19 18:57:00,
2013-05-19 15:03:00,84.9,64.8,29.87,North,360,0.0,0.0,51,0.00,,,0.00,Wunderground v.1.13,2013-05-19 19:03:00,
2013-05-19 15:08:00,85.1,64.4,29.87,North,32767,0.0,0.0,50,0.00,,,0.00,Wunderground v.1.13,2013-05-19 19:08:00,
2013-05-19 15:14:00,85.5,64.2,29.87,North,32767,0.0,0.0,49,0.00,,,0.00,Wunderground v.1.13,2013-05-19 19:14:00,
2013-05-19 15:19:00,86.0,64.6,29.87,North,32767,0.0,0.0,49,0.00,,,0.00,Wunderground v.1.13,2013-05-19 19:19:00,
2013-05-19 15:24:00,86.1,64.7,29.87,North,32767,0.0,0.0,49,0.00,,,0.00,Wunderground v.1.13,2013-05-19 19:24:00,
2013-05-19 15:30:00,85.8,64.4,29.85,North,32767,0.0,0.0,49,0.00,,,0.00,Wunderground v.1.13,2013-05-19 19:30:00,
2013-05-19 15:36:00,85.7,64.3,29.85,North,32767,0.0,0.0,49,0.00,,,0.00,Wunderground v.1.13,2013-05-19 19:36:00,
2013-05-19 15:41:00,85.7,63.8,29.85,North,32767,0.0,0.0,48,0.00,,,0.00,Wunderground v.1.13,2013-05-19 19:41:00,
2013-05-19 15:46:00,85.6,64.2,29.85,North,32767,0.0,0.0,49,0.00,,,0.00,Wunderground v.1.13,2013-05-19 19:46:00,
2013-05-19 15:52:00,85.7,63.8,29.85,North,32767,0.0,0.0,48,0.00,,,0.00,Wunderground v.1.13,2013-05-19 19:52:00,
2013-05-19 15:57:00,85.8,64.4,29.85,North,32767,0.0,0.0,49,0.00,,,0.00,Wunderground v.1.13,2013-05-19 19:57:00,
2013-05-19 16:03:00,86.3,64.3,29.85,North,32767,0.0,0.0,48,0.00,,,0.00,Wunderground v.1.13,2013-05-19 20:03:00,
2013-05-19 16:08:00,86.1,64.7,29.85,North,32767,0.0,0.0,49,0.00,,,0.00,Wunderground v.1.13,2013-05-19 20:08:00,
2013-05-19 16:14:00,86.0,64.0,29.84,North,360,0.0,0.0,48,0.00,,,0.00,Wunderground v.1.13,2013-05-19 20:14:00,
2013-05-19 16:20:00,85.8,64.4,29.84,North,32767,0.0,0.0,49,0.00,,,0.00,Wunderground v.1.13,2013-05-19 20:20:00,
2013-05-19 16:26:00,86.1,64.7,29.84,North,32767,0.0,0.0,49,0.00,,,0.00,Wunderground v.1.13,2013-05-19 20:26:00,
2013-05-19 16:32:00,86.5,64.5,29.84,North,360,0.0,0.0,48,0.00,,,0.00,Wunderground v.1.13,2013-05-19 20:32:00,
2013-05-19 16:37:00,85.7,63.1,29.84,North,32767,0.0,0.0,47,0.00,,,0.00,Wunderground v.1.13,2013-05-19 20:37:00,
2013-05-19 16:43:00,85.4,64.1,29.84,North,32767,0.0,0.0,49,0.00,,,0.00,Wunderground v.1.13,2013-05-19 20:43:00,
2013-05-19 16:49:00,85.5,64.2,29.84,North,32767,0.0,0.0,49,0.00,,,0.00,Wunderground v.1.13,2013-05-19 20:49:00,
2013-05-19 16:55:00,85.5,64.2,29.84,North,360,0.0,0.0,49,0.00,,,0.00,Wunderground v.1.13,2013-05-19 20:55:00,
2013-05-19 17:01:00,85.7,64.3,29.84,North,32767,0.0,0.0,49,0.00,,,0.00,Wunderground v.1.13,2013-05-19 21:01:00,
2013-05-19 17:06:00,85.5,64.7,29.84,North,32767,0.0,0.0,50,0.00,,,0.00,Wunderground v.1.13,2013-05-19 21:06:00,
2013-05-19 17:12:00,85.5,64.7,29.84,North,32767,0.0,0.0,50,0.00,,,0.00,Wunderground v.1.13,2013-05-19 21:12:00,
2013-05-19 17:18:00,85.6,64.8,29.84,North,360,0.0,0.0,50,0.00,,,0.00,Wunderground v.1.13,2013-05-19 21:18:00,
2013-05-19 17:24:00,85.9,65.1,29.84,North,32767,0.0,0.0,50,0.00,,,0.00,Wunderground v.1.13,2013-05-19 21:24:00,
2013-05-19 17:30:00,86.1,64.7,29.83,North,32767,0.0,0.0,49,0.00,,,0.00,Wunderground v.1.13,2013-05-19 21:30:00,
2013-05-19 17:36:00,86.1,64.1,29.83,North,360,0.0,0.0,48,0.00,,,0.00,Wunderground v.1.13,2013-05-19 21:36:00,
2013-05-19 17:42:00,85.5,64.2,29.83,North,32767,0.0,0.0,49,0.00,,,0.00,Wunderground v.1.13,2013-05-19 21:42:00,
2013-05-19 17:48:00,85.2,64.5,29.83,North,32767,0.0,0.0,50,0.00,,,0.00,Wunderground v.1.13,2013-05-19 21:48:00,
2013-05-19 17:53:00,84.9,64.8,29.83,North,32767,0.0,0.0,51,0.00,,,0.00,Wunderground v.1.13,2013-05-19 21:53:00,
2013-05-19 17:59:00,84.7,64.6,29.83,North,32767,0.0,0.0,51,0.00,,,0.00,Wunderground v.1.13,2013-05-19 21:59:00,
2013-05-19 18:04:00,84.7,64.6,29.83,North,360,0.0,0.0,51,0.00,,,0.00,Wunderground v.1.13,2013-05-19 22:04:00,
2013-05-19 18:10:00,85.1,64.9,29.83,North,32767,0.0,0.0,51,0.00,,,0.00,Wunderground v.1.13,2013-05-19 22:10:00,
2013-05-19 18:16:00,85.1,64.9,29.84,North,360,0.0,0.0,51,0.00,,,0.00,Wunderground v.1.13,2013-05-19 22:16:00,
2013-05-19 18:21:00,85.1,64.9,29.84,North,32767,0.0,0.0,51,0.00,,,0.00,Wunderground v.1.13,2013-05-19 22:21:00,
2013-05-19 18:26:00,85.2,65.0,29.84,North,32767,0.0,0.0,51,0.00,,,0.00,Wunderground v.1.13,2013-05-19 22:26:00,
2013-05-19 18:32:00,85.5,65.3,29.83,North,32767,0.0,0.0,51,0.00,,,0.00,Wunderground v.1.13,2013-05-19 22:32:00,
2013-05-19 18:37:00,85.3,65.1,29.83,North,32767,0.0,0.0,51,0.00,,,0.00,Wunderground v.1.13,2013-05-19 22:37:00,
2013-05-19 18:43:00,85.3,65.7,29.82,North,360,0.0,0.0,52,0.00,,,0.00,Wunderground v.1.13,2013-05-19 22:43:00,
2013-05-19 18:49:00,85.5,64.7,29.82,North,360,0.0,0.0,50,0.00,,,0.00,Wunderground v.1.13,2013-05-19 22:49:00,
2013-05-19 18:55:00,85.6,65.4,29.82,North,32767,0.0,0.0,51,0.00,,,0.00,Wunderground v.1.13,2013-05-19 22:55:00,
2013-05-19 19:00:00,85.6,64.8,29.82,North,360,0.0,0.0,50,0.00,,,0.00,Wunderground v.1.13,2013-05-19 23:00:00,
2013-05-19 19:05:00,85.2,64.5,29.82,North,32767,0.0,0.0,50,0.00,,,0.00,Wunderground v.1.13,2013-05-19 23:05:00,
2013-05-19 19:11:00,85.1,64.4,29.82,North,360,0.0,0.0,50,0.00,,,0.00,Wunderground v.1.13,2013-05-19 23:11:00,
2013-05-19 19:16:00,85.1,64.4,29.81,North,360,0.0,0.0,50,0.00,,,0.00,Wunderground v.1.13,2013-05-19 23:16:00,
2013-05-19 19:21:00,84.9,64.8,29.81,North,360,0.0,0.0,51,0.00,,,0.00,Wunderground v.1.13,2013-05-19 23:21:00,
2013-05-19 19:27:00,84.9,64.8,29.81,North,32767,0.0,0.0,51,0.00,,,0.00,Wunderground v.1.13,2013-05-19 23:27:00,
2013-05-19 19:32:00,84.8,64.7,29.81,North,360,0.0,0.0,51,0.00,,,0.00,Wunderground v.1.13,2013-05-19 23:32:00,
2013-05-19 19:37:00,84.8,64.7,29.81,North,360,0.0,0.0,51,0.00,,,0.00,Wunderground v.1.13,2013-05-19 23:37:00,
2013-05-19 19:43:00,84.8,64.7,29.81,North,360,0.0,0.0,51,0.00,,,0.00,Wunderground v.1.13,2013-05-19 23:43:00,
2013-05-19 19:49:00,84.5,64.4,29.81,North,360,0.0,0.0,51,0.00,,,0.00,Wunderground v.1.13,2013-05-19 23:49:00,
2013-05-19 19:55:00,84.3,64.8,29.81,North,360,0.0,0.0,52,0.00,,,0.00,Wunderground v.1.13,2013-05-19 23:55:00,
2013-05-19 20:01:00,84.2,64.7,29.80,North,32767,0.0,0.0,52,0.00,,,0.00,Wunderground v.1.13,2013-05-20 00:01:00,
2013-05-19 20:07:00,84.1,64.6,29.80,North,32767,0.0,0.0,52,0.00,,,0.00,Wunderground v.1.13,2013-05-20 00:07:00,
2013-05-19 20:12:00,84.0,64.5,29.80,North,32767,0.0,0.0,52,0.00,,,0.00,Wunderground v.1.13,2013-05-20 00:12:00,
2013-05-19 20:17:00,83.8,64.3,29.80,North,360,0.0,0.0,52,0.00,,,0.00,Wunderground v.1.13,2013-05-20 00:17:00,
2013-05-19 20:23:00,83.4,64.5,29.80,North,32767,0.0,0.0,53,0.00,,,0.00,Wunderground v.1.13,2013-05-20 00:23:00,
2013-05-19 20:29:00,83.1,64.7,29.79,North,360,0.0,0.0,54,0.00,,,0.00,Wunderground v.1.13,2013-05-20 00:29:00,
2013-05-19 20:34:00,82.8,64.5,29.79,North,32767,0.0,0.0,54,0.00,,,0.00,Wunderground v.1.13,2013-05-20 00:34:00,
2013-05-19 20:40:00,82.5,64.2,29.79,North,32767,0.0,0.0,54,0.00,,,0.00,Wunderground v.1.13,2013-05-20 00:40:00,
2013-05-19 20:46:00,82.3,64.0,29.79,North,32767,0.0,0.0,54,0.00,,,0.00,Wunderground v.1.13,2013-05-20 00:46:00,
2013-05-19 20:52:00,82.1,64.3,29.79,North,360,0.0,0.0,55,0.00,,,0.00,Wunderground v.1.13,2013-05-20 00:52:00,
2013-05-19 20:57:00,81.9,64.1,29.80,North,360,0.0,0.0,55,0.00,,,0.00,Wunderground v.1.13,2013-05-20 00:57:00,
2013-05-19 21:02:00,81.6,64.4,29.80,North,360,0.0,0.0,56,0.00,,,0.00,Wunderground v.1.13,2013-05-20 01:02:00,
2013-05-19 21:08:00,81.4,64.2,29.80,North,360,0.0,0.0,56,0.00,,,0.00,Wunderground v.1.13,2013-05-20 01:08:00,
2013-05-19 21:14:00,81.0,64.3,29.81,North,32767,0.0,0.0,57,0.00,,,0.00,Wunderground v.1.13,2013-05-20 01:14:00,
2013-05-19 21:20:00,80.5,64.4,29.81,North,360,0.0,0.0,58,0.00,,,0.00,Wunderground v.1.13,2013-05-20 01:20:00,
2013-05-19 21:26:00,80.0,64.4,29.81,North,32767,0.0,0.0,59,0.00,,,0.00,Wunderground v.1.13,2013-05-20 01:26:00,
2013-05-19 21:31:00,79.5,64.4,29.81,North,32767,0.0,0.0,60,0.00,,,0.00,Wunderground v.1.13,2013-05-20 01:31:00,
2013-05-19 21:37:00,78.9,64.3,29.81,North,32767,0.0,0.0,61,0.00,,,0.00,Wunderground v.1.13,2013-05-20 01:37:00,
2013-05-19 21:43:00,78.6,64.5,29.82,North,32767,0.0,0.0,62,0.00,,,0.00,Wunderground v.1.13,2013-05-20 01:43:00,
2013-05-19 21:49:00,78.2,64.1,29.82,North,32767,0.0,0.0,62,0.00,,,0.00,Wunderground v.1.13,2013-05-20 01:49:00,
2013-05-19 21:55:00,77.8,64.2,29.82,North,360,0.0,0.0,63,0.00,,,0.00,Wunderground v.1.13,2013-05-20 01:55:00,
2013-05-19 22:01:00,77.5,64.4,29.82,North,32767,0.0,0.0,64,0.00,,,0.00,Wunderground v.1.13,2013-05-20 02:01:00,
2013-05-19 22:06:00,77.0,64.3,29.82,North,32767,0.0,0.0,65,0.00,,,0.00,Wunderground v.1.13,2013-05-20 02:06:00,
2013-05-19 22:12:00,76.6,64.4,29.82,North,32767,0.0,0.0,66,0.00,,,0.00,Wunderground v.1.13,2013-05-20 02:12:00,
2013-05-19 22:18:00,76.1,64.3,29.82,North,32767,0.0,0.0,67,0.00,,,0.00,Wunderground v.1.13,2013-05-20 02:18:00,
2013-05-19 22:23:00,75.9,64.6,29.82,North,32767,0.0,0.0,68,0.00,,,0.00,Wunderground v.1.13,2013-05-20 02:23:00,
2013-05-19 22:29:00,75.6,64.3,29.83,North,32767,0.0,0.0,68,0.00,,,0.00,Wunderground v.1.13,2013-05-20 02:29:00,
2013-05-19 22:34:00,75.4,64.5,29.83,North,32767,0.0,0.0,69,0.00,,,0.00,Wunderground v.1.13,2013-05-20 02:34:00,
2013-05-19 22:40:00,75.0,64.5,29.83,North,32767,0.0,0.0,70,0.00,,,0.00,Wunderground v.1.13,2013-05-20 02:40:00,
2013-05-19 22:46:00,74.7,64.3,29.83,North,32767,0.0,0.0,70,0.00,,,0.00,Wunderground v.1.13,2013-05-20 02:46:00,
2013-05-19 22:52:00,74.3,64.3,29.83,North,32767,0.0,0.0,71,0.00,,,0.00,Wunderground v.1.13,2013-05-20 02:52:00,
2013-05-19 22:58:00,74.1,64.5,29.83,North,32767,0.0,0.0,72,0.00,,,0.00,Wunderground v.1.13,2013-05-20 02:58:00,
2013-05-19 23:04:00,74.1,64.5,29.83,North,360,0.0,0.0,72,0.00,,,0.00,Wunderground v.1.13,2013-05-20 03:04:00,
2013-05-19 23:10:00,74.0,64.4,29.83,North,32767,0.0,0.0,72,0.00,,,0.00,Wunderground v.1.13,2013-05-20 03:10:00,
2013-05-19 23:15:00,73.9,64.3,29.83,North,32767,0.0,0.0,72,0.00,,,0.00,Wunderground v.1.13,2013-05-20 03:15:00,
2013-05-19 23:21:00,73.8,64.2,29.83,North,32767,0.0,0.0,72,0.00,,,0.00,Wunderground v.1.13,2013-05-20 03:21:00,
2013-05-19 23:27:00,73.8,64.2,29.83,North,32767,0.0,0.0,72,0.00,,,0.00,Wunderground v.1.13,2013-05-20 03:27:00,
2013-05-19 23:33:00,73.8,64.2,29.83,North,32767,0.0,0.0,72,0.00,,,0.00,Wunderground v.1.13,2013-05-20 03:33:00,
2013-05-19 23:38:00,73.8,64.2,29.83,North,32767,0.0,0.0,72,0.00,,,0.00,Wunderground v.1.13,2013-05-20 03:38:00,
2013-05-19 23:43:00,73.7,64.1,29.83,North,32767,0.0,0.0,72,0.00,,,0.00,Wunderground v.1.13,2013-05-20 03:43:00,
2013-05-19 23:48:00,73.7,64.1,29.83,North,32767,0.0,0.0,72,0.00,,,0.00,Wunderground v.1.13,2013-05-20 03:48:00,
2013-05-19 23:53:00,73.5,63.9,29.83,North,32767,0.0,0.0,72,0.00,,,0.00,Wunderground v.1.13,2013-05-20 03:53:00,
2013-05-19 23:59:00,73.5,63.9,29.83,North,32767,0.0,0.0,72,0.00,,,0.00,Wunderground v.1.13,2013-05-20 03:59:00,